Time;durP1;ratioP1;P1;durP2;ratioP2;P2;SDS_P1;SDS_P2;PMS_P1;PMS_P2;Temp;Humidity;BMP_temperature;BMP_pressure;BME280_temperature;BME280_humidity;BME280_pressure;Samples;Min_cycle;Max_cycle;Signal;HPM_P1;HPM_P2
2023/05/07 00:02:22;;;;;;;28.83;20.88;;;12.90;99.90;;;;;;5099750;28;20048;-58
2023/05/07 00:04:48;;;;;;;25.98;20.70;;;12.80;99.90;;;;;;5099043;28;20479;-59
2023/05/07 00:07:14;;;;;;;27.15;20.88;;;12.80;99.90;;;;;;5100214;28;20040;-58
2023/05/07 00:09:40;;;;;;;28.33;21.25;;;12.70;99.90;;;;;;5098090;28;20067;-58
2023/05/07 00:12:07;;;;;;;28.50;21.02;;;12.60;99.90;;;;;;5100593;28;20059;-58
2023/05/07 00:14:32;;;;;;;28.65;22.35;;;12.60;99.90;;;;;;5098239;28;20119;-58
2023/05/07 00:16:58;;;;;;;29.80;20.45;;;12.50;99.90;;;;;;5100167;28;20044;-58
2023/05/07 00:19:24;;;;;;;29.60;22.15;;;12.50;99.90;;;;;;5098871;28;20036;-58
2023/05/07 00:21:49;;;;;;;26.60;20.45;;;12.50;99.90;;;;;;5098990;28;20131;-58
2023/05/07 00:24:15;;;;;;;28.85;21.65;;;12.60;99.90;;;;;;5099501;28;20103;-58
2023/05/07 00:26:41;;;;;;;29.50;21.92;;;12.50;99.90;;;;;;5080044;28;20566;-59
2023/05/07 00:29:07;;;;;;;27.60;21.65;;;12.30;99.90;;;;;;5099699;28;20048;-58
2023/05/07 00:31:32;;;;;;;28.48;21.02;;;12.30;99.90;;;;;;5097967;28;20043;-59
2023/05/07 00:33:58;;;;;;;29.90;22.60;;;12.30;99.90;;;;;;5099821;28;20048;-58
2023/05/07 00:36:23;;;;;;;28.90;22.25;;;12.30;99.90;;;;;;5098801;28;20055;-59
2023/05/07 00:38:49;;;;;;;32.08;23.42;;;12.30;99.90;;;;;;5080466;28;20083;-59
2023/05/07 00:41:15;;;;;;;29.92;22.67;;;12.20;99.90;;;;;;5099174;28;20048;-60
2023/05/07 00:43:41;;;;;;;28.27;21.88;;;12.10;99.90;;;;;;5097868;28;20396;-60
2023/05/07 00:46:06;;;;;;;29.33;23.23;;;12.30;99.90;;;;;;5098681;28;20678;-59
2023/05/07 00:48:32;;;;;;;35.38;25.25;;;12.30;99.90;;;;;;5078867;28;20040;-60
2023/05/07 00:50:58;;;;;;;32.42;22.60;;;12.10;99.90;;;;;;5099967;28;20036;-60
2023/05/07 00:53:24;;;;;;;30.90;23.42;;;12.10;99.90;;;;;;5097630;28;20050;-61
2023/05/07 00:55:50;;;;;;;32.50;24.23;;;12.10;99.90;;;;;;5098906;28;20492;-60
2023/05/07 00:58:16;;;;;;;32.92;24.35;;;12.10;99.90;;;;;;5098787;28;20040;-61
2023/05/07 01:00:42;;;;;;;33.67;25.67;;;12.10;99.90;;;;;;5097409;28;20462;-61
2023/05/07 01:03:08;;;;;;;35.80;26.33;;;12.20;99.90;;;;;;5098972;28;20116;-61
2023/05/07 01:05:34;;;;;;;33.80;25.73;;;12.00;99.90;;;;;;5096674;28;20048;-61
2023/05/07 01:08:02;;;;;;;34.28;25.92;;;11.90;99.90;;;;;;5080662;28;20052;-61
2023/05/07 01:10:30;;;;;;;33.33;24.60;;;11.90;99.90;;;;;;5097295;28;20130;-61
2023/05/07 01:12:57;;;;;;;33.28;25.52;;;12.00;99.90;;;;;;5098647;28;20070;-62
2023/05/07 01:15:23;;;;;;;37.03;26.20;;;11.90;99.90;;;;;;5098348;28;20043;-61
2023/05/07 01:17:49;;;;;;;39.17;26.17;;;11.80;99.90;;;;;;5097563;28;20096;-61
2023/05/07 01:20:15;;;;;;;35.97;26.95;;;12.00;99.90;;;;;;5098750;28;20134;-61
2023/05/07 01:22:43;;;;;;;36.25;26.00;;;12.10;99.90;;;;;;5096877;28;20076;-60
2023/05/07 01:25:08;;;;;;;41.40;26.63;;;12.10;99.90;;;;;;5099137;28;20058;-61
2023/05/07 01:27:36;;;;;;;36.78;26.17;;;11.90;99.90;;;;;;5097163;28;20083;-61
2023/05/07 01:30:04;;;;;;;36.45;25.75;;;12.10;99.90;;;;;;5097956;28;20079;-61
2023/05/07 01:32:40;;;;;;;34.17;25.45;;;11.90;99.90;;;;;;5098249;28;20055;-61
2023/05/07 01:35:09;;;;;;;34.80;26.58;;;11.80;99.90;;;;;;5096597;28;20076;-63
2023/05/07 01:37:35;;;;;;;34.30;25.80;;;11.80;99.90;;;;;;5098815;28;20071;-63
2023/05/07 01:40:03;;;;;;;34.88;27.42;;;11.80;99.90;;;;;;5096271;28;20071;-63
2023/05/07 01:42:29;;;;;;;36.08;26.52;;;11.90;99.90;;;;;;5098933;28;20040;-62
2023/05/07 01:44:55;;;;;;;36.92;27.70;;;11.90;99.90;;;;;;5097099;28;20115;-63
2023/05/07 01:47:22;;;;;;;37.30;26.80;;;12.00;99.90;;;;;;5097521;28;20040;-60
2023/05/07 01:49:47;;;;;;;37.10;28.10;;;12.00;99.90;;;;;;5097728;28;20082;-58
2023/05/07 01:52:13;;;;;;;34.25;26.75;;;11.80;99.90;;;;;;5096872;28;20040;-59
2023/05/07 01:54:39;;;;;;;38.75;28.80;;;11.60;99.90;;;;;;5098551;28;20078;-62
2023/05/07 01:57:05;;;;;;;38.10;28.80;;;11.90;99.90;;;;;;5096057;28;20108;-60
2023/05/07 01:59:31;;;;;;;38.72;28.83;;;11.80;99.90;;;;;;5098504;28;20079;-60
2023/05/07 02:01:56;;;;;;;38.97;28.65;;;11.70;99.90;;;;;;5097002;28;20380;-60
2023/05/07 02:04:22;;;;;;;37.30;26.80;;;11.90;99.90;;;;;;5097675;28;20133;-60
2023/05/07 02:06:47;;;;;;;33.72;27.67;;;11.70;99.90;;;;;;5097785;28;20454;-60
2023/05/07 02:09:14;;;;;;;35.55;27.35;;;11.70;99.90;;;;;;5096516;28;20056;-59
2023/05/07 02:11:40;;;;;;;33.22;26.15;;;11.80;99.90;;;;;;5098411;28;20048;-62
2023/05/07 02:14:06;;;;;;;33.50;26.50;;;11.90;99.90;;;;;;5096355;28;20152;-60
2023/05/07 02:16:31;;;;;;;33.40;24.42;;;11.80;99.90;;;;;;5098663;28;20068;-59
2023/05/07 02:18:58;;;;;;;32.22;24.67;;;11.90;99.90;;;;;;5096499;28;20135;-59
2023/05/07 02:21:25;;;;;;;35.35;25.95;;;11.70;99.90;;;;;;5079662;28;20074;-59
2023/05/07 02:23:50;;;;;;;31.77;24.30;;;11.70;99.90;;;;;;5097654;28;20032;-59
2023/05/07 02:26:16;;;;;;;30.27;23.25;;;11.70;99.90;;;;;;5096420;28;20092;-59
2023/05/07 02:28:42;;;;;;;35.03;24.75;;;11.80;99.90;;;;;;5098078;28;20051;-59
2023/05/07 02:31:07;;;;;;;35.72;26.65;;;11.60;99.90;;;;;;5096178;28;20506;-59
2023/05/07 02:33:35;;;;;;;33.63;24.73;;;11.50;99.90;;;;;;5098235;28;20990;-59
2023/05/07 02:36:08;;;;;;;35.70;25.60;;;11.40;99.90;;;;;;5077804;28;20044;-59
2023/05/07 02:38:34;;;;;;;34.38;25.63;;;11.40;99.90;;;;;;5079577;28;20048;-58
2023/05/07 02:41:00;;;;;;;36.55;26.27;;;11.40;99.90;;;;;;5097323;28;20048;-59
2023/05/07 02:43:25;;;;;;;36.42;25.95;;;11.50;99.90;;;;;;5096241;28;20051;-58
2023/05/07 02:46:02;;;;;;;35.50;27.13;;;11.40;99.90;;;;;;5097729;28;20036;-58
2023/05/07 02:48:28;;;;;;;38.67;27.02;;;11.40;99.90;;;;;;5075427;28;20082;-57
2023/05/07 02:50:54;;;;;;;37.30;25.48;;;11.60;99.90;;;;;;5098247;28;20041;-58
2023/05/07 02:53:20;;;;;;;36.38;26.65;;;11.30;99.90;;;;;;5096260;28;20063;-58
2023/05/07 02:55:45;;;;;;;38.70;25.70;;;11.60;99.90;;;;;;5097289;28;20036;-59
2023/05/07 02:58:11;;;;;;;40.15;26.90;;;11.60;99.90;;;;;;5097267;28;20048;-58
2023/05/07 03:00:37;;;;;;;38.95;27.35;;;11.30;99.90;;;;;;5095657;28;20231;-59
2023/05/07 03:03:02;;;;;;;35.70;25.48;;;11.50;99.90;;;;;;5097865;28;20044;-60
2023/05/07 03:05:28;;;;;;;37.25;25.60;;;11.30;99.90;;;;;;5095701;28;20095;-59
2023/05/07 03:07:54;;;;;;;37.22;25.83;;;11.50;99.90;;;;;;5097910;28;20069;-60
2023/05/07 03:10:20;;;;;;;38.72;27.15;;;11.50;99.90;;;;;;5099206;28;20059;-59
2023/05/07 03:12:45;;;;;;;34.08;24.95;;;11.20;99.90;;;;;;5101051;28;20089;-59
2023/05/07 03:15:12;;;;;;;39.10;28.55;;;11.40;99.90;;;;;;5100546;28;20040;-60
2023/05/07 03:17:38;;;;;;;39.47;27.23;;;11.40;99.90;;;;;;5099430;28;20089;-58
2023/05/07 03:20:05;;;;;;;37.15;26.42;;;11.20;99.90;;;;;;5101219;28;20055;-59
2023/05/07 03:22:30;;;;;;;35.20;26.23;;;11.40;99.90;;;;;;5099340;28;20052;-59
2023/05/07 03:24:56;;;;;;;40.60;28.05;;;11.30;99.90;;;;;;5101663;28;20787;-59
2023/05/07 03:27:22;;;;;;;37.88;26.75;;;11.50;99.90;;;;;;5099221;28;20036;-59
2023/05/07 03:29:48;;;;;;;39.47;27.15;;;11.20;99.90;;;;;;5100591;28;20043;-60
2023/05/07 03:32:14;;;;;;;38.05;26.73;;;11.30;99.90;;;;;;5100138;28;20496;-59
2023/05/07 03:34:39;;;;;;;38.03;27.35;;;11.40;99.90;;;;;;5099796;28;20047;-59
2023/05/07 03:37:05;;;;;;;35.05;26.85;;;11.40;99.90;;;;;;5100666;28;20032;-59
2023/05/07 03:39:32;;;;;;;39.42;28.20;;;11.30;99.90;;;;;;5098893;28;20044;-59
2023/05/07 03:41:58;;;;;;;37.03;26.45;;;11.20;99.90;;;;;;5082682;28;20054;-58
2023/05/07 03:44:23;;;;;;;38.20;27.00;;;11.50;99.90;;;;;;5080670;28;20498;-58
2023/05/07 03:46:49;;;;;;;35.92;25.13;;;11.30;99.90;;;;;;5100631;28;20036;-58
2023/05/07 03:49:15;;;;;;;34.15;25.35;;;11.20;99.90;;;;;;5099495;28;20055;-58
2023/05/07 03:51:41;;;;;;;38.20;26.48;;;11.40;99.90;;;;;;5099770;28;20043;-58
2023/05/07 03:54:07;;;;;;;39.63;26.55;;;11.30;99.90;;;;;;5100387;28;20095;-58
2023/05/07 03:56:32;;;;;;;38.17;25.40;;;11.10;99.90;;;;;;5098718;28;20547;-58
2023/05/07 03:58:58;;;;;;;35.25;25.70;;;11.10;99.90;;;;;;5100381;28;20059;-58
2023/05/07 04:01:24;;;;;;;37.20;25.98;;;11.10;99.90;;;;;;5098521;28;20494;-58
2023/05/07 04:03:49;;;;;;;39.85;24.95;;;11.20;99.90;;;;;;5100681;28;20044;-58
2023/05/07 04:06:17;;;;;;;38.95;26.40;;;11.10;99.90;;;;;;5099078;28;20051;-57
2023/05/07 04:08:43;;;;;;;35.38;25.92;;;11.30;99.90;;;;;;5081270;28;20071;-58
2023/05/07 04:11:08;;;;;;;37.80;27.35;;;11.10;99.90;;;;;;5099772;28;20118;-58
2023/05/07 04:13:34;;;;;;;41.80;27.77;;;11.20;99.90;;;;;;5098333;28;20051;-56
2023/05/07 04:16:02;;;;;;;40.15;27.65;;;11.30;99.90;;;;;;5100365;28;20074;-57
2023/05/07 04:18:28;;;;;;;41.55;27.05;;;11.00;99.90;;;;;;5079806;28;20036;-56
2023/05/07 04:20:54;;;;;;;39.60;27.40;;;11.20;99.90;;;;;;5100418;28;20119;-58
2023/05/07 04:23:19;;;;;;;39.78;27.75;;;11.10;99.90;;;;;;5098524;28;20075;-58
2023/05/07 04:25:45;;;;;;;39.75;27.55;;;11.00;99.90;;;;;;5099519;28;20548;-60
2023/05/07 04:28:12;;;;;;;40.65;28.45;;;11.20;99.90;;;;;;5099094;28;20043;-58
2023/05/07 04:30:38;;;;;;;33.42;23.90;;;10.90;99.90;;;;;;5098209;28;20517;-58
2023/05/07 04:33:04;;;;;;;37.25;25.70;;;10.90;99.90;;;;;;5099769;28;20043;-57
2023/05/07 04:35:29;;;;;;;37.83;26.40;;;11.10;99.90;;;;;;5097773;28;20051;-57
2023/05/07 04:37:55;;;;;;;37.70;27.05;;;10.90;99.90;;;;;;5100021;28;20450;-57
2023/05/07 04:40:21;;;;;;;39.65;26.77;;;10.90;99.90;;;;;;5097872;28;20048;-57
2023/05/07 04:42:46;;;;;;;38.92;25.75;;;11.10;99.90;;;;;;5099223;28;20448;-57
2023/05/07 04:45:12;;;;;;;39.20;26.33;;;10.80;99.90;;;;;;5080872;28;20574;-57
2023/05/07 04:47:38;;;;;;;35.97;26.13;;;10.90;99.90;;;;;;5097727;28;20381;-57
2023/05/07 04:50:06;;;;;;;38.38;25.77;;;10.80;99.90;;;;;;5099443;28;20048;-56
2023/05/07 04:52:31;;;;;;;36.53;26.38;;;10.80;99.90;;;;;;5097553;28;20380;-57
2023/05/07 04:54:59;;;;;;;39.38;26.50;;;11.00;99.90;;;;;;5099886;28;20100;-57
2023/05/07 04:57:25;;;;;;;40.00;26.30;;;10.90;99.90;;;;;;5097677;28;20044;-57
2023/05/07 04:59:50;;;;;;;39.08;27.58;;;10.90;99.90;;;;;;5099035;28;20037;-58
2023/05/07 05:02:16;;;;;;;35.78;26.70;;;11.20;99.90;;;;;;5098478;28;20074;-58
2023/05/07 05:04:42;;;;;;;39.22;26.35;;;11.10;99.90;;;;;;5097968;28;20066;-57
2023/05/07 05:07:07;;;;;;;36.63;26.75;;;11.20;99.90;;;;;;5099132;28;20127;-58
2023/05/07 05:09:33;;;;;;;38.40;26.70;;;11.00;99.90;;;;;;5096791;28;20047;-57
2023/05/07 05:11:59;;;;;;;39.15;26.65;;;10.90;99.90;;;;;;5099323;28;20036;-57
2023/05/07 05:14:25;;;;;;;36.85;26.38;;;10.90;99.90;;;;;;5097102;28;20113;-56
2023/05/07 05:16:50;;;;;;;34.95;25.63;;;10.80;99.90;;;;;;5098808;28;20044;-57
2023/05/07 05:19:16;;;;;;;35.08;25.85;;;10.90;99.90;;;;;;5097934;28;20067;-57
2023/05/07 05:21:42;;;;;;;35.30;24.90;;;10.80;99.90;;;;;;5097822;28;20036;-57
2023/05/07 05:24:08;;;;;;;35.20;23.52;;;11.00;99.90;;;;;;5098498;28;20040;-54
2023/05/07 05:26:34;;;;;;;38.00;25.40;;;11.10;99.90;;;;;;5096922;28;20134;-57
2023/05/07 05:28:59;;;;;;;33.10;23.50;;;10.90;99.90;;;;;;5098922;28;20062;-57
2023/05/07 05:31:25;;;;;;;34.40;23.90;;;11.00;99.90;;;;;;5096176;28;20044;-57
2023/05/07 05:33:51;;;;;;;35.38;23.02;;;11.00;99.90;;;;;;5098762;28;20312;-57
2023/05/07 05:36:17;;;;;;;35.90;24.95;;;11.00;99.90;;;;;;5097648;28;20032;-57
2023/05/07 05:38:43;;;;;;;35.15;24.55;;;10.90;99.90;;;;;;5097505;28;20076;-57
2023/05/07 05:41:09;;;;;;;35.53;24.52;;;11.00;99.90;;;;;;5098236;28;20048;-57
2023/05/07 05:43:35;;;;;;;34.80;24.40;;;10.80;99.90;;;;;;5096989;28;20044;-57
2023/05/07 05:46:01;;;;;;;36.15;24.02;;;10.80;99.90;;;;;;5098127;28;20395;-57
2023/05/07 05:48:26;;;;;;;31.33;22.88;;;10.80;99.90;;;;;;5096264;28;20043;-57
2023/05/07 05:50:52;;;;;;;31.40;23.38;;;10.80;99.90;;;;;;5098775;28;20510;-57
2023/05/07 05:53:18;;;;;;;34.45;23.10;;;10.80;99.90;;;;;;5096666;28;20109;-57
2023/05/07 05:55:44;;;;;;;33.08;22.27;;;11.00;99.90;;;;;;5097783;28;20055;-57
2023/05/07 05:58:09;;;;;;;35.70;24.10;;;10.90;99.90;;;;;;5097982;28;20040;-57
2023/05/07 06:00:35;;;;;;;29.90;21.75;;;11.00;99.90;;;;;;5096644;28;20040;-57
2023/05/07 06:03:01;;;;;;;32.60;22.23;;;11.20;99.90;;;;;;5093481;28;20139;-57
2023/05/07 06:05:27;;;;;;;32.97;22.85;;;11.10;99.90;;;;;;5057162;28;20044;-57
2023/05/07 06:07:52;;;;;;;32.67;22.80;;;11.10;99.90;;;;;;5094426;28;20080;-58
2023/05/07 06:10:18;;;;;;;32.00;22.45;;;11.00;99.90;;;;;;5092543;28;20058;-57
2023/05/07 06:12:44;;;;;;;32.20;23.02;;;11.20;99.90;;;;;;5093842;28;20055;-57
2023/05/07 06:15:10;;;;;;;29.83;21.95;;;11.10;99.90;;;;;;5093981;28;20044;-57
2023/05/07 06:17:36;;;;;;;31.90;22.73;;;11.20;99.90;;;;;;5092928;28;20077;-57
2023/05/07 06:20:01;;;;;;;30.30;21.95;;;11.10;99.90;;;;;;5093972;28;20087;-57
2023/05/07 06:22:27;;;;;;;29.17;21.75;;;11.20;99.90;;;;;;5091425;28;20044;-55
2023/05/07 06:24:53;;;;;;;30.05;22.63;;;11.10;99.90;;;;;;5090705;28;20032;-57
2023/05/07 06:27:18;;;;;;;31.77;22.13;;;11.30;99.90;;;;;;5091904;28;20044;-57
2023/05/07 06:29:44;;;;;;;30.08;21.85;;;11.30;99.90;;;;;;5093353;28;20071;-57
2023/05/07 06:32:11;;;;;;;30.77;21.73;;;11.30;99.90;;;;;;5090035;28;20047;-57
2023/05/07 06:34:37;;;;;;;28.67;21.52;;;11.20;99.90;;;;;;5091810;28;20070;-59
2023/05/07 06:37:03;;;;;;;30.63;22.45;;;11.40;99.90;;;;;;5093267;28;20042;-57
2023/05/07 06:39:29;;;;;;;31.58;21.73;;;11.10;99.90;;;;;;5091232;28;20040;-57
2023/05/07 06:41:55;;;;;;;30.40;22.00;;;11.20;99.90;;;;;;5093232;28;20103;-58
2023/05/07 06:44:20;;;;;;;31.40;21.08;;;11.30;99.90;;;;;;5093352;28;20039;-57
2023/05/07 06:46:46;;;;;;;31.02;21.48;;;11.40;99.90;;;;;;5096546;28;20227;-57
2023/05/07 06:49:12;;;;;;;27.67;20.35;;;11.30;99.90;;;;;;5095927;28;20039;-57
2023/05/07 06:51:38;;;;;;;29.80;21.55;;;11.20;99.90;;;;;;5093559;28;20044;-57
2023/05/07 06:54:04;;;;;;;28.23;21.52;;;11.20;99.90;;;;;;5096638;28;20539;-57
2023/05/07 06:56:30;;;;;;;30.95;22.15;;;11.10;99.90;;;;;;5095632;28;20040;-57
2023/05/07 06:58:56;;;;;;;30.52;22.17;;;11.00;99.90;;;;;;5097550;28;20048;-57
2023/05/07 07:01:22;;;;;;;30.77;20.88;;;11.30;99.90;;;;;;5095337;28;20103;-57
2023/05/07 07:03:47;;;;;;;28.83;21.17;;;11.30;99.90;;;;;;5097994;28;20044;-57
2023/05/07 07:06:13;;;;;;;31.05;22.75;;;11.10;99.90;;;;;;5096208;28;20044;-57
2023/05/07 07:08:39;;;;;;;31.95;21.25;;;11.10;99.90;;;;;;5096523;28;20052;-57
2023/05/07 07:11:06;;;;;;;32.25;23.88;;;11.30;99.90;;;;;;5097067;28;20098;-57
2023/05/07 07:13:32;;;;;;;29.33;22.05;;;11.10;99.90;;;;;;5095391;28;20044;-57
2023/05/07 07:15:57;;;;;;;30.63;22.70;;;11.20;99.90;;;;;;5097572;28;20086;-57
2023/05/07 07:18:23;;;;;;;28.30;21.83;;;11.30;99.90;;;;;;5095464;28;20529;-57
2023/05/07 07:20:49;;;;;;;30.73;23.55;;;11.20;99.90;;;;;;5097458;28;20575;-57
2023/05/07 07:23:15;;;;;;;30.77;23.27;;;11.30;99.90;;;;;;5095997;28;20044;-57
2023/05/07 07:25:40;;;;;;;30.65;21.15;;;11.40;99.90;;;;;;5096170;28;20054;-57
2023/05/07 07:28:06;;;;;;;32.67;22.95;;;11.30;99.90;;;;;;5078487;28;20042;-57
2023/05/07 07:30:32;;;;;;;30.33;21.70;;;11.10;99.90;;;;;;5095456;28;20089;-57
2023/05/07 07:33:02;;;;;;;31.73;23.17;;;11.30;99.90;;;;;;5097261;28;20264;-57
2023/05/07 07:35:30;;;;;;;27.63;21.02;;;11.10;99.90;;;;;;5094482;28;20082;-57
2023/05/07 07:37:56;;;;;;;29.33;21.38;;;11.30;99.90;;;;;;5096842;28;21049;-57
2023/05/07 07:40:22;;;;;;;31.50;22.13;;;11.10;99.90;;;;;;5095045;28;20036;-57
2023/05/07 07:42:47;;;;;;;31.15;21.33;;;11.00;99.90;;;;;;5096207;28;20502;-57
2023/05/07 07:45:13;;;;;;;31.40;21.75;;;11.20;99.90;;;;;;5096522;28;20068;-57
2023/05/07 07:47:42;;;;;;;29.83;21.58;;;11.20;99.90;;;;;;5095170;28;20044;-57
2023/05/07 07:50:08;;;;;;;32.30;22.65;;;11.20;99.90;;;;;;5096263;28;20110;-56
2023/05/07 07:52:34;;;;;;;28.75;20.50;;;11.20;99.90;;;;;;5094439;28;20044;-57
2023/05/07 07:55:00;;;;;;;32.38;22.42;;;11.20;99.90;;;;;;5096104;28;20048;-59
2023/05/07 07:57:26;;;;;;;34.83;23.70;;;11.30;99.90;;;;;;5094957;28;20048;-60
2023/05/07 07:59:51;;;;;;;30.27;21.33;;;11.10;99.90;;;;;;5096012;28;20093;-60
2023/05/07 08:02:17;;;;;;;29.80;21.33;;;11.30;99.90;;;;;;5095592;28;20040;-59
2023/05/07 08:04:43;;;;;;;32.78;23.20;;;11.20;99.90;;;;;;5094340;28;20049;-60
2023/05/07 08:07:10;;;;;;;30.60;21.88;;;11.10;99.90;;;;;;5095885;28;20040;-60
2023/05/07 08:09:39;;;;;;;30.23;22.02;;;11.40;99.90;;;;;;5094496;28;20502;-59
2023/05/07 08:12:05;;;;;;;32.97;22.10;;;11.40;99.90;;;;;;5096732;28;20085;-60
2023/05/07 08:14:31;;;;;;;30.98;21.60;;;11.50;99.90;;;;;;5094198;28;20044;-58
2023/05/07 08:16:57;;;;;;;33.63;24.00;;;11.40;99.90;;;;;;5095950;28;20036;-57
2023/05/07 08:19:23;;;;;;;32.08;22.95;;;11.50;99.90;;;;;;5095389;28;20629;-57
2023/05/07 08:21:48;;;;;;;34.17;22.08;;;11.80;99.90;;;;;;5094870;28;20504;-58
2023/05/07 08:24:15;;;;;;;30.38;22.85;;;11.70;99.90;;;;;;5096215;28;20040;-57
2023/05/07 08:26:41;;;;;;;32.63;23.48;;;11.80;99.90;;;;;;5074735;28;20044;-57
2023/05/07 08:29:06;;;;;;;31.75;21.85;;;11.80;99.90;;;;;;5095904;28;20066;-57
2023/05/07 08:31:32;;;;;;;31.42;22.30;;;12.10;99.90;;;;;;5093956;28;20044;-57
2023/05/07 08:33:59;;;;;;;30.90;20.15;;;12.30;99.90;;;;;;5095743;28;20044;-57
2023/05/07 08:36:25;;;;;;;31.88;21.30;;;12.30;99.90;;;;;;5095188;28;20082;-57
2023/05/07 08:38:51;;;;;;;30.48;21.52;;;12.40;99.90;;;;;;5094212;28;20099;-57
2023/05/07 08:41:17;;;;;;;26.77;19.27;;;12.50;99.90;;;;;;5095645;28;20044;-57
2023/05/07 08:43:48;;;;;;;33.58;21.23;;;12.70;99.90;;;;;;5093726;28;20050;-57
2023/05/07 08:46:20;;;;;;;29.75;20.25;;;12.50;99.90;;;;;;5096079;28;20043;-57
2023/05/07 08:48:51;;;;;;;27.42;19.65;;;12.70;99.90;;;;;;5080964;28;20044;-57
2023/05/07 08:51:20;;;;;;;28.58;20.67;;;12.70;99.90;;;;;;5094743;28;20036;-57
2023/05/07 08:53:48;;;;;;;28.27;20.17;;;12.70;99.90;;;;;;5094926;28;20072;-57
2023/05/07 08:56:20;;;;;;;30.38;21.30;;;12.80;99.90;;;;;;5093461;28;20427;-57
2023/05/07 08:58:45;;;;;;;28.52;19.85;;;12.80;99.90;;;;;;5094922;28;20553;-57
2023/05/07 09:01:16;;;;;;;27.10;19.50;;;12.90;99.90;;;;;;5089957;28;20048;-57
2023/05/07 09:03:45;;;;;;;31.58;21.13;;;13.10;99.90;;;;;;5095674;28;20058;-57
2023/05/07 09:06:11;;;;;;;28.15;20.52;;;13.00;99.90;;;;;;5093240;28;20075;-57
2023/05/07 09:08:37;;;;;;;28.45;19.55;;;12.90;99.90;;;;;;5091544;28;20040;-58
2023/05/07 09:11:03;;;;;;;29.38;20.92;;;13.00;99.90;;;;;;5083752;28;20093;-57
2023/05/07 09:13:29;;;;;;;28.58;19.30;;;12.90;99.90;;;;;;5080682;28;20036;-57
2023/05/07 09:15:55;;;;;;;30.17;20.38;;;12.90;99.90;;;;;;5083623;28;20094;-57
2023/05/07 09:18:21;;;;;;;29.05;20.02;;;13.00;99.90;;;;;;5089901;28;20052;-57
2023/05/07 09:20:47;;;;;;;31.25;20.40;;;13.00;99.90;;;;;;5095450;28;20059;-57
2023/05/07 09:23:13;;;;;;;31.02;21.13;;;13.10;99.90;;;;;;5093498;28;20138;-57
2023/05/07 09:25:39;;;;;;;29.63;21.33;;;13.20;99.90;;;;;;5093826;28;20048;-57
2023/05/07 09:28:09;;;;;;;28.63;20.00;;;13.40;99.90;;;;;;5094091;28;20513;-60
2023/05/07 09:30:35;;;;;;;28.90;19.48;;;13.40;99.90;;;;;;5086629;28;20390;-57
2023/05/07 09:33:03;;;;;;;28.05;21.17;;;13.20;99.90;;;;;;5082729;28;20040;-57
2023/05/07 09:35:30;;;;;;;26.48;19.10;;;13.50;99.90;;;;;;5082432;28;20040;-57
2023/05/07 09:37:57;;;;;;;25.65;19.15;;;13.60;99.90;;;;;;5083804;28;20040;-57
2023/05/07 09:40:24;;;;;;;29.40;20.45;;;13.60;99.90;;;;;;5081047;28;20044;-58
2023/05/07 09:42:51;;;;;;;29.77;20.23;;;13.60;99.90;;;;;;5083203;28;20047;-58
2023/05/07 09:45:22;;;;;;;29.75;21.58;;;13.70;99.90;;;;;;5083895;28;20040;-57
2023/05/07 09:47:49;;;;;;;27.67;20.17;;;13.80;99.90;;;;;;5075193;28;20052;-58
2023/05/07 09:50:17;;;;;;;28.50;19.60;;;13.70;99.90;;;;;;5081865;28;20047;-57
2023/05/07 09:52:44;;;;;;;28.52;20.98;;;13.70;99.90;;;;;;5082383;28;20036;-57
2023/05/07 09:55:12;;;;;;;27.63;19.95;;;13.80;99.90;;;;;;5083085;28;20227;-58
2023/05/07 09:57:39;;;;;;;29.13;20.70;;;14.00;99.90;;;;;;5081519;28;20036;-58
2023/05/07 10:00:08;;;;;;;27.70;20.05;;;14.00;99.90;;;;;;5083123;28;20056;-58
2023/05/07 10:02:36;;;;;;;26.20;19.15;;;14.00;99.90;;;;;;5083038;28;20128;-58
2023/05/07 10:05:03;;;;;;;26.25;19.42;;;14.40;99.90;;;;;;5080463;28;20036;-58
2023/05/07 10:07:29;;;;;;;28.30;19.88;;;14.30;99.90;;;;;;5081723;28;20587;-58
2023/05/07 10:09:55;;;;;;;28.15;20.45;;;14.40;99.90;;;;;;5081936;28;20048;-56
2023/05/07 10:12:21;;;;;;;27.33;19.40;;;14.20;99.90;;;;;;5082649;28;20534;-55
2023/05/07 10:14:48;;;;;;;28.08;19.60;;;14.30;99.90;;;;;;5075213;28;20100;-57
2023/05/07 10:17:16;;;;;;;25.83;18.42;;;14.40;99.90;;;;;;5055151;28;20396;-58
2023/05/07 10:19:44;;;;;;;28.10;20.33;;;14.60;99.90;;;;;;5077729;28;20055;-58
2023/05/07 10:22:12;;;;;;;26.75;19.10;;;14.70;99.90;;;;;;5084851;28;20064;-58
2023/05/07 10:24:41;;;;;;;25.90;19.50;;;14.80;99.90;;;;;;5087670;28;20036;-58
2023/05/07 10:27:12;;;;;;;27.13;20.00;;;15.00;99.90;;;;;;5076212;28;20061;-58
2023/05/07 10:29:46;;;;;;;29.67;19.52;;;15.00;99.90;;;;;;5076745;28;20056;-58
2023/05/07 10:32:49;;;;;;;26.52;18.85;;;15.00;99.90;;;;;;5059817;28;20548;-57
2023/05/07 10:35:30;;;;;;;26.90;19.30;;;15.10;99.90;;;;;;5064065;28;20139;-57
2023/05/07 10:37:55;;;;;;;26.17;19.33;;;15.30;99.90;;;;;;5075275;28;20040;-58
2023/05/07 10:40:21;;;;;;;26.15;19.40;;;15.20;99.90;;;;;;5075478;28;20772;-58
2023/05/07 10:42:55;;;;;;;25.63;19.02;;;15.40;99.90;;;;;;5078813;28;20128;-58
2023/05/07 10:45:22;;;;;;;25.17;19.15;;;15.50;99.90;;;;;;5083423;28;20048;-58
2023/05/07 10:48:06;;;;;;;25.63;19.13;;;15.40;99.90;;;;;;5082241;28;20052;-58
2023/05/07 10:50:31;;;;;;;27.92;20.42;;;15.30;99.90;;;;;;5087390;28;20048;-58
2023/05/07 10:53:19;;;;;;;25.48;18.77;;;15.10;99.90;;;;;;5077665;28;20114;-57
2023/05/07 10:55:48;;;;;;;24.80;18.58;;;15.30;99.90;;;;;;5076629;28;20044;-57
2023/05/07 10:58:25;;;;;;;23.67;19.65;;;15.30;99.90;;;;;;5077421;28;20628;-57
2023/05/07 11:01:01;;;;;;;28.48;19.33;;;15.10;99.90;;;;;;5075128;28;20045;-58
2023/05/07 11:03:29;;;;;;;23.17;18.00;;;15.40;99.90;;;;;;5077803;28;20059;-58
2023/05/07 11:06:25;;;;;;;25.48;19.05;;;15.40;99.90;;;;;;5075498;28;20052;-57
2023/05/07 11:08:57;;;;;;;23.35;18.13;;;15.60;99.90;;;;;;5054415;28;20045;-58
2023/05/07 11:11:47;;;;;;;25.25;19.17;;;15.70;99.90;;;;;;5077345;28;20102;-57
2023/05/07 11:14:45;;;;;;;24.48;18.77;;;15.80;99.90;;;;;;5074927;28;20072;-57
2023/05/07 11:17:11;;;;;;;22.85;17.80;;;16.00;99.90;;;;;;5075904;28;20114;-57
2023/05/07 11:19:54;;;;;;;23.00;17.52;;;16.10;99.90;;;;;;5076558;28;20449;-57
2023/05/07 11:22:32;;;;;;;22.70;17.60;;;16.20;99.90;;;;;;5074942;28;20055;-57
2023/05/07 11:25:03;;;;;;;21.70;16.38;;;16.20;99.90;;;;;;5076806;28;20503;-57
2023/05/07 11:27:29;;;;;;;22.83;17.15;;;16.40;99.90;;;;;;5075753;28;20151;-58
2023/05/07 11:29:55;;;;;;;22.40;17.30;;;16.40;99.90;;;;;;5075115;28;20059;-57
2023/05/07 11:32:32;;;;;;;21.38;16.30;;;16.30;99.90;;;;;;5078182;28;20048;-55
2023/05/07 11:34:59;;;;;;;21.38;16.85;;;16.50;99.90;;;;;;5078174;28;20059;-57
2023/05/07 11:37:28;;;;;;;21.27;16.95;;;16.20;99.90;;;;;;5078660;28;20098;-57
2023/05/07 11:40:10;;;;;;;22.88;17.40;;;16.50;99.90;;;;;;5077962;28;20063;-57
2023/05/07 11:42:38;;;;;;;23.73;16.92;;;16.60;99.90;;;;;;5079012;28;20052;-57
2023/05/07 11:45:05;;;;;;;21.25;16.02;;;16.60;99.90;;;;;;5078503;28;20044;-57
2023/05/07 11:47:31;;;;;;;20.80;16.63;;;16.60;99.90;;;;;;5066221;28;20028;-57
2023/05/07 11:50:03;;;;;;;22.35;16.38;;;16.70;99.90;;;;;;5079547;28;20145;-58
2023/05/07 11:52:29;;;;;;;20.25;16.50;;;16.80;99.90;;;;;;5077697;28;20044;-58
2023/05/07 11:54:56;;;;;;;20.17;16.48;;;17.10;99.90;;;;;;5080193;28;20052;-58
2023/05/07 11:57:23;;;;;;;20.77;16.65;;;17.10;99.90;;;;;;5059897;28;20044;-58
2023/05/07 11:59:53;;;;;;;20.13;15.88;;;16.90;99.90;;;;;;5043275;28;20048;-58
2023/05/07 12:02:19;;;;;;;19.70;16.25;;;17.00;99.90;;;;;;5079029;28;20594;-58
2023/05/07 12:04:45;;;;;;;18.08;15.10;;;17.20;99.90;;;;;;5059777;28;20037;-58
2023/05/07 12:07:15;;;;;;;21.02;16.75;;;17.30;99.90;;;;;;5080066;28;20072;-57
2023/05/07 12:09:41;;;;;;;21.17;17.90;;;17.30;99.90;;;;;;5075392;28;20056;-57
2023/05/07 12:12:07;;;;;;;19.55;16.92;;;17.20;99.90;;;;;;5079188;28;20041;-58
2023/05/07 12:14:40;;;;;;;17.98;15.65;;;17.20;99.90;;;;;;5077767;28;20135;-58
2023/05/07 12:17:08;;;;;;;22.00;15.48;;;17.10;99.90;;;;;;5078960;28;20041;-57
2023/05/07 12:19:39;;;;;;;20.85;16.73;;;17.30;99.90;;;;;;5078921;28;20060;-59
2023/05/07 12:22:05;;;;;;;17.60;14.32;;;17.30;99.90;;;;;;5059625;28;20092;-58
2023/05/07 12:24:57;;;;;;;17.75;14.77;;;17.20;99.90;;;;;;5079387;28;20091;-58
2023/05/07 12:27:23;;;;;;;17.80;14.02;;;17.40;99.90;;;;;;5078178;28;20071;-58
2023/05/07 12:29:50;;;;;;;17.13;14.23;;;17.70;99.90;;;;;;5078556;28;20041;-58